Portada
METAR-TAF:

METAR-TAF

Aeropuertos :

Radom-Sadków

Radom, Polonia

latitud: 51-23-21N, longitud: 21-12-49E, altitud: 186 m

Observación

El informe se hizo hace 10 horas y 29 minutos, a las 15:00 UTC
Viento 11 kt del oeste-noroeste
Temperatura 4°C
Humedad 81%
Presión 1010 hPa
Visibilidad 10 km o más
Nubes dispersas a una altura de 2200 ft

METAR: EPRA 281500Z 29011KT 9999 SCT022 04/01 Q1010

Hora: 02:29 (01:29 UTC)

Pronóstico

El informe se hizo hace 7 horas y 24 minutos, a las 18:05 UTC
Pronóstico válido del 28 a las 18 UTC al 29 a las 03 UTC
Viento 5 kt del oeste
Visibilidad 10 km o más
sin nubes por debajo de 1500 m y sin presencia de cumulonimbus.
Probabilidad 30% :
Temporalmente
del 28 a las 22 UTC al 29 a las 03 UTC
Visibilidad: 4000 m
Cielo nuboso a una altura de 700 ft
Cielo nuboso a una altura de 1500 ft, Cumulonimbus.
chaparrones de lluvia, nieve

TAF: EPRA 281805Z 2818/2903 27005KT CAVOK PROB30 TEMPO 2822/2903 4000 -SHRASN BKN007 BKN015CB

Observaciones y pronósticos meteorológicos de más de 4000 aeropuertos (mensajes METAR y TAF).

Los puntos amarillos y rojos representan las estaciones disponibles.

Ponga el ratón en el punto deseado para ver el nombre de la estación.

Haga clic para ver las observaciones y los pronósticos meteorológicos.

Para cambiar el mapa : haga clic en los botones verdes con una cruz de color negro para hacer un zoom, en el botón verde con un guión para alejar o en las flechas verdes para mapas adyacentes.


METAR-TAF: